Terminal Aerodrome Forecast
Issued by NWS

Home | Current Version | Previous Version | Graphics & Text | Print | Product List | Glossary On
Versions: 1 2 3 4 5 6 7 8 9 10 11 12 13 14 15 16 17 18 19 20 21 22 23
000
FTUS43 KBIS 220400 AAB
TAFDIK
TAF AMD
KDIK 220444Z 2205/2224 01007KT P6SM SCT040
     FM220900 34005KT 2SM BR BKN006 OVC010
     FM221400 02005KT 5SM BR BKN015
     FM221700 08007KT P6SM SCT050=

USA.gov is the U.S. government's official web portal to all federal, state and local government web resources and services.